KONA/ONA METAR and TAF weather

Enter ICAO airport designator
Station Type Date Time Source
KONA METAR 2019/11/14 04:15 UTC NOAA

KONA 140415Z AUTO 00000KT 10SM BKN015 OVC022 M02/M03 A3007 RMK AO2


Station Type Date Time Source
KONA Decoded METAR 2019/11/14 04:15 UTC NOAA

Winona, Winona Municipal Airport-Max Conrad Field, MN, United States (KONA) 44-05N 091-42W
Nov 13, 2019 - 11:15 PM EST / 2019.11.14 0415 UTC
Wind: Calm:0
Visibility: 10 mile(s):0
Sky conditions: overcast
Temperature: 28 F (-2 C)
Dew Point: 26 F (-3 C)
Relative Humidity: 92%
Pressure (altimeter): 30.07 in. Hg (1018 hPa)
ob: KONA 140415Z AUTO 00000KT 10SM BKN015 OVC022 M02/M03 A3007 RMK AO2
cycle: 4

Station Type Date Time Source
KONA TAF UTC NOAA

Error!

Example: see airport list